Time;durP1;ratioP1;P1;durP2;ratioP2;P2;SDS_P1;SDS_P2;PMS_P1;PMS_P2;Temp;Humidity;BMP_temperature;BMP_pressure;BME280_temperature;BME280_humidity;BME280_pressure;Samples;Min_cycle;Max_cycle;Signal;HPM_P1;HPM_P2
2022/11/01 00:01:47;;;;;;;16.93;8.57;;;9.70;99.90;;;;;;5054930;28;20176;-80
2022/11/01 00:04:13;;;;;;;20.90;9.53;;;9.70;99.90;;;;;;5054789;28;20183;-80
2022/11/01 00:06:39;;;;;;;19.47;7.80;;;9.60;99.90;;;;;;5054949;28;20648;-80
2022/11/01 00:09:05;;;;;;;16.17;9.13;;;9.60;99.90;;;;;;5054758;28;20241;-80
2022/11/01 00:11:31;;;;;;;17.70;7.67;;;9.70;99.90;;;;;;5054501;28;20172;-80
2022/11/01 00:13:57;;;;;;;17.77;8.93;;;9.60;99.90;;;;;;5036823;28;20186;-80
2022/11/01 00:16:23;;;;;;;19.10;8.90;;;9.60;99.90;;;;;;5054529;28;20617;-80
2022/11/01 00:18:49;;;;;;;18.13;8.40;;;9.60;99.90;;;;;;5054383;28;20175;-80
2022/11/01 00:21:16;;;;;;;18.13;7.57;;;9.60;99.90;;;;;;5036672;28;20175;-80
2022/11/01 00:23:42;;;;;;;13.90;8.13;;;9.50;99.90;;;;;;5054599;28;20176;-81
2022/11/01 00:26:12;;;;;;;16.27;8.27;;;9.50;99.90;;;;;;5054534;28;20173;-81
2022/11/01 00:28:38;;;;;;;18.47;8.20;;;9.50;99.90;;;;;;5054592;28;20167;-80
2022/11/01 00:31:04;;;;;;;17.13;7.50;;;9.50;99.90;;;;;;5036683;28;20180;-80
2022/11/01 00:33:30;;;;;;;15.73;8.07;;;9.50;99.90;;;;;;5053353;28;20179;-80
2022/11/01 00:35:59;;;;;;;16.80;7.90;;;9.50;99.90;;;;;;5054102;28;20655;-80
2022/11/01 00:38:25;;;;;;;14.50;7.50;;;9.50;99.90;;;;;;5054148;28;20168;-80
2022/11/01 00:40:50;;;;;;;17.63;7.53;;;9.50;99.90;;;;;;5053840;28;20214;-80
2022/11/01 00:43:16;;;;;;;23.30;8.40;;;9.60;99.90;;;;;;5053628;28;20188;-81
2022/11/01 00:45:43;;;;;;;17.43;8.70;;;9.60;99.90;;;;;;5054166;28;20176;-80
2022/11/01 00:48:10;;;;;;;16.60;8.80;;;9.60;99.90;;;;;;5054047;28;20176;-80
2022/11/01 00:50:36;;;;;;;19.23;8.83;;;9.60;99.90;;;;;;5053829;28;20203;-81
2022/11/01 00:53:02;;;;;;;20.87;9.33;;;9.60;99.90;;;;;;5053416;28;20700;-81
2022/11/01 00:55:27;;;;;;;17.47;8.80;;;9.60;99.90;;;;;;5053881;28;20590;-81
2022/11/01 00:57:53;;;;;;;15.47;8.27;;;9.60;99.90;;;;;;5054097;28;20210;-80
2022/11/01 01:00:19;;;;;;;16.37;8.27;;;9.60;99.90;;;;;;5054362;28;20294;-81
2022/11/01 01:02:44;;;;;;;12.90;7.00;;;9.60;99.90;;;;;;5036730;28;20192;-81
2022/11/01 01:05:11;;;;;;;19.13;8.47;;;9.50;99.90;;;;;;5054385;28;20176;-80
2022/11/01 01:07:36;;;;;;;17.57;8.57;;;9.60;99.90;;;;;;5036228;28;20631;-80
2022/11/01 01:10:04;;;;;;;18.70;7.47;;;9.50;99.90;;;;;;5054105;28;20218;-80
2022/11/01 01:12:30;;;;;;;13.87;7.23;;;;;;;;;;5053925;28;20182;-80
2022/11/01 01:14:56;;;;;;;15.63;7.57;;;9.50;99.90;;;;;;5054096;28;20605;-80
2022/11/01 01:17:22;;;;;;;15.00;8.27;;;9.50;99.90;;;;;;5053961;28;20210;-81
2022/11/01 01:19:47;;;;;;;15.10;7.67;;;9.50;99.90;;;;;;5053966;28;20211;-80
2022/11/01 01:22:14;;;;;;;15.23;7.50;;;9.40;99.90;;;;;;5053700;28;20204;-80
2022/11/01 01:24:44;;;;;;;13.73;8.07;;;9.40;99.90;;;;;;5053926;28;20259;-80
2022/11/01 01:27:11;;;;;;;28.80;9.17;;;9.50;99.90;;;;;;5054176;28;20184;-80
2022/11/01 01:29:40;;;;;;;12.57;6.67;;;9.50;99.90;;;;;;5053747;28;20186;-81
2022/11/01 01:32:07;;;;;;;19.07;8.70;;;9.50;99.90;;;;;;5053883;28;20176;-81
2022/11/01 01:34:33;;;;;;;18.60;7.40;;;9.50;99.90;;;;;;5066350;28;20531;-79
2022/11/01 01:36:58;;;;;;;17.67;7.73;;;9.60;99.90;;;;;;5076980;28;20175;-80
2022/11/01 01:39:24;;;;;;;20.53;9.43;;;9.50;99.90;;;;;;5076587;28;20211;-82
2022/11/01 01:41:56;;;;;;;17.67;7.23;;;9.50;99.90;;;;;;5076373;28;20183;-79
2022/11/01 01:44:47;;;;;;;11.80;6.97;;;9.60;99.90;;;;;;5061887;28;20164;-80
2022/11/01 01:47:26;;;;;;;14.27;7.40;;;9.50;99.90;;;;;;5056197;28;20224;-79
2022/11/01 01:50:12;;;;;;;15.73;8.10;;;9.50;99.90;;;;;;5061217;28;20168;-80
2022/11/01 01:52:52;;;;;;;15.00;7.37;;;9.50;99.90;;;;;;5062953;28;20630;-79
2022/11/01 01:55:26;;;;;;;26.17;8.30;;;9.50;99.90;;;;;;5063337;28;20233;-79
2022/11/01 01:57:54;;;;;;;18.07;7.17;;;9.50;99.90;;;;;;5059727;28;20174;-79
2022/11/01 02:00:19;;;;;;;13.77;7.93;;;9.50;99.90;;;;;;5040078;28;20214;-81
2022/11/01 02:02:45;;;;;;;17.07;7.20;;;9.60;99.90;;;;;;5057435;28;20179;-79
2022/11/01 02:05:38;;;;;;;13.97;7.60;;;9.60;99.90;;;;;;5056172;28;20258;-80
2022/11/01 02:08:05;;;;;;;21.40;7.60;;;9.50;99.90;;;;;;5054252;28;20187;-80
2022/11/01 02:10:32;;;;;;;14.90;7.53;;;9.50;99.90;;;;;;5054015;28;20186;-81
2022/11/01 02:12:58;;;;;;;19.23;8.30;;;9.50;99.90;;;;;;5053986;28;20176;-80
2022/11/01 02:15:32;;;;;;;15.30;6.37;;;9.50;99.90;;;;;;5035565;28;20663;-80
2022/11/01 02:18:14;;;;;;;13.43;7.53;;;9.50;99.90;;;;;;5053508;28;20175;-80
2022/11/01 02:21:21;;;;;;;14.40;6.70;;;9.50;99.90;;;;;;5053399;28;20191;-80
2022/11/01 02:24:00;;;;;;;18.20;8.13;;;9.50;99.90;;;;;;4956104;28;20643;-80
2022/11/01 02:26:32;;;;;;;14.67;7.23;;;9.50;99.90;;;;;;4972444;28;20174;-80
2022/11/01 02:29:10;;;;;;;18.37;6.73;;;9.50;99.90;;;;;;5003579;28;20637;-81
2022/11/01 02:31:39;;;;;;;13.80;6.87;;;9.50;99.90;;;;;;5053217;28;20163;-80
2022/11/01 02:34:23;;;;;;;13.20;7.17;;;9.50;99.90;;;;;;5053530;28;20172;-80
2022/11/01 02:37:09;;;;;;;15.17;7.30;;;9.50;99.90;;;;;;5052877;28;20188;-80
2022/11/01 02:39:39;;;;;;;21.23;6.73;;;9.50;99.90;;;;;;5053286;28;20192;-81
2022/11/01 02:42:19;;;;;;;16.87;7.07;;;9.40;99.90;;;;;;5053397;28;20171;-80
2022/11/01 02:45:26;;;;;;;17.00;7.10;;;9.40;99.90;;;;;;5052940;28;20160;-80
2022/11/01 02:47:53;;;;;;;10.70;5.83;;;9.40;99.90;;;;;;5049245;28;20211;-80
2022/11/01 02:50:19;;;;;;;11.57;6.03;;;9.40;99.90;;;;;;5053090;28;20182;-80
2022/11/01 02:52:46;;;;;;;10.67;6.27;;;9.30;99.90;;;;;;5052968;28;20250;-80
2022/11/01 02:55:29;;;;;;;9.80;5.63;;;9.30;99.90;;;;;;5053235;28;20640;-80
2022/11/01 02:58:03;;;;;;;9.00;5.57;;;9.30;99.90;;;;;;5055805;28;20178;-81
2022/11/01 03:00:34;;;;;;;13.90;6.67;;;9.30;99.90;;;;;;5056875;28;20195;-80
2022/11/01 03:03:24;;;;;;;10.33;5.23;;;9.30;99.90;;;;;;5056852;28;20198;-81
2022/11/01 03:05:59;;;;;;;14.43;6.60;;;9.30;99.90;;;;;;5056511;28;20625;-80
2022/11/01 03:08:30;;;;;;;17.60;7.13;;;9.20;99.90;;;;;;5056855;28;20246;-80
2022/11/01 03:11:04;;;;;;;14.90;5.70;;;9.30;99.90;;;;;;5056431;28;20613;-80
2022/11/01 03:13:44;;;;;;;10.70;6.07;;;9.20;99.90;;;;;;5056416;28;20172;-80
2022/11/01 03:16:36;;;;;;;8.20;5.60;;;9.20;99.90;;;;;;5056425;28;20172;-80
2022/11/01 03:19:29;;;;;;;10.03;6.20;;;9.20;99.90;;;;;;5038422;28;20548;-81
2022/11/01 03:22:19;;;;;;;10.63;5.70;;;9.20;99.90;;;;;;5056331;28;20219;-80
2022/11/01 03:24:53;;;;;;;10.63;5.13;;;9.20;99.90;;;;;;5056248;28;20191;-80
2022/11/01 03:27:27;;;;;;;13.67;6.77;;;9.20;99.90;;;;;;5055967;28;20519;-80
2022/11/01 03:30:09;;;;;;;11.73;6.13;;;9.20;99.90;;;;;;5056202;28;20620;-81
2022/11/01 03:32:48;;;;;;;11.17;5.73;;;9.20;99.90;;;;;;5055926;28;20214;-80
2022/11/01 03:35:35;;;;;;;13.60;5.57;;;9.20;99.90;;;;;;5056777;28;20171;-80
2022/11/01 03:38:07;;;;;;;11.50;5.90;;;9.20;99.90;;;;;;5055839;28;20183;-80
2022/11/01 03:40:35;;;;;;;8.77;4.47;;;9.20;99.90;;;;;;5055651;28;20195;-80
2022/11/01 03:43:05;;;;;;;11.60;5.47;;;9.20;99.90;;;;;;5055794;28;20180;-80
2022/11/01 03:45:34;;;;;;;12.53;5.93;;;9.20;99.90;;;;;;5056116;28;20204;-80
2022/11/01 03:48:00;;;;;;;10.57;4.93;;;9.20;99.90;;;;;;5055632;28;20255;-80
2022/11/01 03:50:27;;;;;;;11.57;5.93;;;9.20;99.90;;;;;;5055961;28;20279;-81
2022/11/01 03:52:53;;;;;;;13.67;6.70;;;9.10;99.90;;;;;;5055484;28;20223;-81
2022/11/01 03:55:20;;;;;;;12.83;6.43;;;9.10;99.90;;;;;;5055758;28;20180;-80
2022/11/01 03:57:48;;;;;;;9.90;5.47;;;9.00;99.90;;;;;;5055576;28;20641;-80
2022/11/01 04:00:19;;;;;;;11.63;6.30;;;9.00;99.90;;;;;;5055606;28;20261;-81
2022/11/01 04:02:46;;;;;;;10.57;5.47;;;9.00;99.90;;;;;;5037736;28;20579;-80
2022/11/01 04:05:12;;;;;;;8.37;5.20;;;9.00;99.90;;;;;;5055599;28;20182;-80
2022/11/01 04:07:42;;;;;;;11.07;5.87;;;9.00;99.90;;;;;;5054634;28;20184;-80
2022/11/01 04:10:08;;;;;;;9.07;5.53;;;8.90;99.90;;;;;;5054827;28;20180;-81
2022/11/01 04:12:34;;;;;;;11.90;4.80;;;8.90;99.90;;;;;;5055458;28;20176;-80
2022/11/01 04:20:34;;;;;;;9.77;5.53;;;;;;;;;;5055241;28;20206;-80
2022/11/01 04:23:04;;;;;;;10.37;5.27;;;8.80;99.90;;;;;;5055030;28;20179;-80
2022/11/01 04:25:32;;;;;;;9.77;4.67;;;8.80;99.90;;;;;;5054823;28;20168;-80
2022/11/01 04:27:58;;;;;;;12.83;5.53;;;;;;;;;;5054766;28;20315;-81
2022/11/01 04:30:28;;;;;;;7.87;4.77;;;8.70;99.90;;;;;;5054786;28;20187;-81
2022/11/01 04:32:54;;;;;;;14.23;5.37;;;8.70;99.90;;;;;;5054661;28;20258;-81
2022/11/01 04:35:20;;;;;;;9.40;6.03;;;8.70;99.90;;;;;;5037099;28;20643;-81
2022/11/01 04:37:46;;;;;;;10.00;4.73;;;8.70;99.90;;;;;;5054769;28;20176;-81
2022/11/01 04:40:13;;;;;;;8.37;4.70;;;8.70;99.90;;;;;;5054334;28;20203;-81
2022/11/01 04:42:39;;;;;;;9.77;4.63;;;;;;;;;;5054297;28;20263;-80
2022/11/01 04:45:07;;;;;;;7.43;4.53;;;8.70;99.90;;;;;;5054469;28;20172;-81
2022/11/01 04:47:33;;;;;;;9.47;5.10;;;8.70;99.90;;;;;;5054248;28;20176;-81
2022/11/01 04:49:59;;;;;;;13.57;5.93;;;8.70;99.90;;;;;;5054529;28;20668;-81
2022/11/01 04:52:25;;;;;;;8.80;4.53;;;8.70;99.90;;;;;;5036539;28;20179;-81
2022/11/01 04:54:51;;;;;;;8.47;4.63;;;9.30;99.90;;;;;;5054518;28;20230;-81
2022/11/01 04:57:23;;;;;;;9.17;5.53;;;8.80;99.90;;;;;;5054206;28;20176;-81
2022/11/01 04:59:53;;;;;;;9.33;5.10;;;8.70;99.90;;;;;;5054519;28;20676;-81
2022/11/01 05:02:20;;;;;;;11.63;5.13;;;8.70;99.90;;;;;;5054040;28;20546;-81
2022/11/01 05:04:46;;;;;;;14.27;4.83;;;8.70;99.90;;;;;;5036622;28;20650;-81
2022/11/01 05:07:12;;;;;;;15.07;5.03;;;8.60;99.90;;;;;;5036213;28;20302;-81
2022/11/01 05:09:38;;;;;;;8.20;4.73;;;8.70;99.90;;;;;;5036319;28;20195;-82
2022/11/01 05:12:04;;;;;;;10.80;4.63;;;8.70;99.90;;;;;;5054453;28;20183;-81
2022/11/01 05:14:30;;;;;;;8.73;3.83;;;8.70;99.90;;;;;;5054404;28;20180;-81
2022/11/01 05:16:56;;;;;;;5.87;3.53;;;8.70;99.90;;;;;;5054126;28;20180;-81
2022/11/01 05:19:22;;;;;;;12.13;6.57;;;8.70;99.90;;;;;;5053612;28;20265;-81
2022/11/01 05:21:48;;;;;;;11.80;4.83;;;8.70;99.90;;;;;;5054133;28;20637;-81
2022/11/01 05:24:14;;;;;;;10.87;4.83;;;8.60;99.90;;;;;;5053920;28;20314;-81
2022/11/01 05:26:40;;;;;;;6.83;4.20;;;8.60;99.90;;;;;;5053992;28;20259;-81
2022/11/01 05:29:05;;;;;;;10.27;5.17;;;8.60;99.90;;;;;;5053783;28;20175;-80
2022/11/01 05:31:31;;;;;;;5.27;3.60;;;8.60;99.90;;;;;;5053633;28;20616;-81
2022/11/01 05:33:56;;;;;;;10.00;4.40;;;8.60;99.90;;;;;;5053669;28;20621;-82
2022/11/01 05:36:22;;;;;;;8.03;4.33;;;8.60;99.90;;;;;;5035840;28;20645;-82
2022/11/01 05:38:48;;;;;;;12.40;5.50;;;8.60;99.90;;;;;;5053171;28;20234;-82
2022/11/01 05:41:13;;;;;;;14.90;5.13;;;8.60;99.90;;;;;;5052906;28;20336;-82
2022/11/01 05:43:39;;;;;;;8.87;4.93;;;8.70;99.90;;;;;;5035741;28;20211;-82
2022/11/01 05:46:06;;;;;;;12.60;5.50;;;8.70;99.90;;;;;;5053211;28;20191;-82
2022/11/01 05:48:32;;;;;;;9.87;4.30;;;8.70;99.90;;;;;;5053472;28;20176;-82
2022/11/01 05:50:58;;;;;;;10.63;4.87;;;8.70;99.90;;;;;;5053306;28;20187;-82
2022/11/01 05:53:23;;;;;;;7.60;4.63;;;8.70;99.90;;;;;;5053463;28;20239;-79
2022/11/01 05:55:49;;;;;;;7.83;4.07;;;8.70;99.90;;;;;;5053668;28;20704;-79
2022/11/01 05:58:16;;;;;;;8.30;4.80;;;8.70;99.90;;;;;;5053562;28;20664;-79
2022/11/01 06:00:41;;;;;;;11.07;5.10;;;8.70;99.90;;;;;;5053466;28;20699;-82
2022/11/01 06:03:07;;;;;;;9.07;4.93;;;8.70;99.90;;;;;;5053329;28;20184;-82
2022/11/01 06:05:33;;;;;;;11.30;4.90;;;8.70;99.90;;;;;;5053487;28;20623;-82
2022/11/01 06:08:03;;;;;;;13.40;4.63;;;8.70;99.90;;;;;;5053850;28;20179;-82
2022/11/01 06:10:29;;;;;;;10.03;5.10;;;8.70;99.90;;;;;;5053733;28;20211;-81
2022/11/01 06:12:56;;;;;;;11.63;4.80;;;;;;;;;;5053697;28;20182;-81
2022/11/01 06:15:22;;;;;;;11.53;4.67;;;11.00;99.90;;;;;;5035879;28;20207;-81
2022/11/01 06:17:53;;;;;;;13.70;5.27;;;8.80;99.90;;;;;;5053776;28;20254;-81
2022/11/01 06:20:19;;;;;;;12.33;5.20;;;8.80;99.90;;;;;;5053128;28;20191;-82
2022/11/01 06:22:45;;;;;;;12.27;5.93;;;8.80;99.90;;;;;;5053469;28;20190;-81
2022/11/01 06:25:11;;;;;;;10.60;5.63;;;8.80;99.90;;;;;;5053058;28;20229;-81
2022/11/01 06:27:37;;;;;;;8.43;5.10;;;;;;;;;;5053260;28;20537;-81
2022/11/01 06:30:03;;;;;;;5.27;3.43;;;8.90;99.90;;;;;;5035468;28;20230;-81
2022/11/01 06:32:28;;;;;;;10.63;5.17;;;8.80;99.90;;;;;;5055369;28;20184;-81
2022/11/01 06:34:54;;;;;;;8.53;4.90;;;8.80;99.90;;;;;;5057174;28;20290;-81
2022/11/01 06:37:20;;;;;;;9.07;4.87;;;8.90;99.90;;;;;;5039007;28;20179;-81
2022/11/01 06:39:45;;;;;;;8.97;4.77;;;8.90;99.90;;;;;;5057198;28;20711;-81
2022/11/01 06:42:11;;;;;;;8.10;4.80;;;8.90;99.90;;;;;;5056576;28;20270;-82
2022/11/01 06:44:37;;;;;;;9.73;4.40;;;8.90;99.90;;;;;;5038818;28;20187;-81
2022/11/01 06:47:02;;;;;;;5.73;3.73;;;8.90;99.90;;;;;;5056740;28;20176;-81
2022/11/01 06:49:29;;;;;;;10.17;4.63;;;8.90;99.90;;;;;;5056395;28;20184;-81
2022/11/01 06:51:55;;;;;;;10.67;5.43;;;8.90;99.90;;;;;;5056547;28;20210;-82
2022/11/01 06:54:20;;;;;;;8.57;4.20;;;8.90;99.90;;;;;;5056355;28;20224;-81
2022/11/01 06:56:46;;;;;;;10.23;4.67;;;8.90;99.90;;;;;;5056202;28;20187;-82
2022/11/01 06:59:13;;;;;;;10.67;5.80;;;9.00;99.90;;;;;;5055654;28;20625;-81
2022/11/01 07:01:39;;;;;;;12.67;4.73;;;9.00;99.90;;;;;;5056360;28;20190;-81
2022/11/01 07:04:04;;;;;;;8.23;5.00;;;9.10;99.90;;;;;;5038463;28;20188;-81
2022/11/01 07:06:30;;;;;;;13.33;6.10;;;9.10;99.90;;;;;;5055968;28;20447;-82
2022/11/01 07:08:57;;;;;;;8.97;4.73;;;9.20;99.90;;;;;;5055976;28;20180;-81
2022/11/01 07:11:23;;;;;;;8.90;5.30;;;9.20;99.90;;;;;;5055979;28;20202;-81
2022/11/01 07:13:49;;;;;;;8.67;5.50;;;9.30;99.90;;;;;;5055963;28;20545;-81
2022/11/01 07:16:15;;;;;;;9.57;4.40;;;9.20;99.90;;;;;;5056603;28;20179;-81
2022/11/01 07:18:41;;;;;;;15.73;6.77;;;9.20;99.90;;;;;;5056143;28;20552;-81
2022/11/01 07:21:07;;;;;;;11.53;5.30;;;9.20;99.90;;;;;;5055770;28;20204;-81
2022/11/01 07:23:32;;;;;;;13.17;5.63;;;9.20;99.90;;;;;;5037883;28;20179;-81
2022/11/01 07:25:58;;;;;;;12.07;6.87;;;9.20;99.90;;;;;;5037618;28;20559;-81
2022/11/01 07:28:24;;;;;;;15.43;6.13;;;9.30;99.90;;;;;;5055772;28;20544;-81
2022/11/01 07:30:52;;;;;;;10.63;5.67;;;9.40;99.90;;;;;;5055873;28;20612;-81
2022/11/01 07:33:18;;;;;;;12.03;6.47;;;9.30;99.90;;;;;;5055456;28;20172;-81
2022/11/01 07:35:44;;;;;;;15.00;6.23;;;9.50;99.90;;;;;;5055264;28;20179;-81
2022/11/01 07:38:10;;;;;;;15.87;6.10;;;9.50;99.90;;;;;;5055234;28;20242;-81
2022/11/01 07:40:36;;;;;;;14.80;6.17;;;9.50;99.90;;;;;;5054935;28;20303;-83
2022/11/01 07:43:03;;;;;;;10.93;6.20;;;9.50;99.90;;;;;;5037011;28;20270;-82
2022/11/01 07:45:32;;;;;;;7.73;4.87;;;9.50;99.90;;;;;;5056937;28;20184;-81
2022/11/01 07:48:01;;;;;;;15.27;6.67;;;9.40;99.90;;;;;;5077329;28;20164;-81
2022/11/01 07:50:30;;;;;;;8.87;5.60;;;9.40;99.90;;;;;;5074523;28;20198;-81
2022/11/01 07:53:07;;;;;;;11.43;6.20;;;9.40;99.90;;;;;;5078683;28;20232;-81
2022/11/01 07:55:34;;;;;;;10.43;5.87;;;9.40;99.90;;;;;;5075174;28;20194;-81
2022/11/01 07:58:02;;;;;;;12.97;6.13;;;9.50;99.90;;;;;;5058828;28;20179;-82
2022/11/01 08:00:28;;;;;;;13.50;5.67;;;9.50;99.90;;;;;;5059751;28;20206;-81
2022/11/01 08:03:04;;;;;;;15.07;6.70;;;9.60;99.90;;;;;;5061123;28;20206;-80
2022/11/01 08:05:31;;;;;;;10.97;5.00;;;9.60;99.90;;;;;;5079077;28;20160;-81
2022/11/01 08:07:57;;;;;;;14.30;6.80;;;9.70;99.90;;;;;;5078983;28;20168;-81
2022/11/01 08:10:22;;;;;;;18.13;7.47;;;9.60;99.90;;;;;;5058057;28;20176;-83
2022/11/01 08:12:48;;;;;;;13.07;6.67;;;9.70;99.90;;;;;;5039699;28;20187;-82
2022/11/01 08:15:14;;;;;;;9.77;5.67;;;9.80;99.90;;;;;;5056262;28;20187;-83
2022/11/01 08:17:39;;;;;;;13.27;6.07;;;9.90;99.90;;;;;;5057045;28;20271;-83
2022/11/01 08:20:06;;;;;;;10.93;6.97;;;9.90;99.90;;;;;;5056326;28;20203;-81
2022/11/01 08:22:32;;;;;;;14.10;6.30;;;10.00;99.90;;;;;;5037296;28;20590;-82
2022/11/01 08:24:57;;;;;;;12.10;5.77;;;10.00;99.90;;;;;;5056272;28;20180;-81
2022/11/01 08:27:23;;;;;;;15.47;6.50;;;10.00;99.90;;;;;;5055742;28;20180;-81
2022/11/01 08:29:49;;;;;;;12.23;5.83;;;9.90;99.90;;;;;;5056172;28;20655;-81
2022/11/01 08:32:20;;;;;;;11.03;6.03;;;10.00;99.90;;;;;;5055341;28;20263;-82
2022/11/01 08:34:45;;;;;;;19.10;6.43;;;10.00;99.90;;;;;;5056485;28;20170;-82
2022/11/01 08:37:11;;;;;;;9.80;5.80;;;10.10;99.90;;;;;;5055602;28;20270;-82
2022/11/01 08:39:37;;;;;;;22.90;8.67;;;10.10;99.90;;;;;;5053995;28;20211;-82
2022/11/01 08:42:04;;;;;;;17.17;8.77;;;10.20;99.90;;;;;;5054159;28;20259;-82
2022/11/01 08:44:31;;;;;;;11.45;6.20;;;10.30;99.90;;;;;;5036591;28;20322;-82
2022/11/01 08:46:59;;;;;;;15.67;6.53;;;10.30;99.90;;;;;;5052504;28;20221;-83
2022/11/01 08:49:26;;;;;;;9.00;5.77;;;10.30;99.90;;;;;;5035837;28;20275;-82
2022/11/01 08:51:51;;;;;;;14.65;6.82;;;10.40;99.90;;;;;;5053235;28;20187;-82
2022/11/01 08:54:17;;;;;;;16.02;6.43;;;10.40;99.90;;;;;;5052174;28;20215;-81
2022/11/01 08:56:43;;;;;;;11.60;6.07;;;10.30;99.90;;;;;;5034917;28;20184;-81
2022/11/01 08:59:09;;;;;;;13.68;5.95;;;10.40;99.90;;;;;;5053618;28;20238;-83
2022/11/01 09:01:34;;;;;;;18.60;6.83;;;10.40;99.90;;;;;;5053173;28;20538;-83
2022/11/01 09:04:00;;;;;;;11.52;6.70;;;10.50;99.90;;;;;;5053301;28;20183;-82
2022/11/01 09:06:27;;;;;;;14.50;7.88;;;10.60;99.90;;;;;;5052846;28;20271;-81
2022/11/01 09:08:54;;;;;;;15.03;7.33;;;10.70;99.90;;;;;;5052799;28;20179;-82
2022/11/01 09:11:21;;;;;;;13.93;7.10;;;10.70;99.90;;;;;;5052449;28;20238;-82
2022/11/01 09:13:48;;;;;;;13.90;7.00;;;10.80;99.90;;;;;;5052897;28;20194;-82
2022/11/01 09:16:14;;;;;;;15.48;6.72;;;10.80;99.90;;;;;;5053118;28;20175;-82
2022/11/01 09:18:40;;;;;;;14.68;7.53;;;10.90;99.90;;;;;;5053562;28;20180;-82
2022/11/01 09:21:08;;;;;;;10.50;5.70;;;11.00;99.90;;;;;;5053554;28;20610;-82
2022/11/01 09:23:36;;;;;;;11.02;5.82;;;11.00;99.90;;;;;;5059611;28;20191;-81
2022/11/01 09:26:08;;;;;;;12.27;6.03;;;11.00;99.90;;;;;;5061371;28;20211;-82
2022/11/01 09:28:34;;;;;;;11.63;6.22;;;11.10;99.90;;;;;;5040988;28;20272;-82
2022/11/01 09:31:05;;;;;;;10.43;6.20;;;11.20;99.90;;;;;;5058268;28;20172;-81
2022/11/01 09:33:31;;;;;;;11.38;6.18;;;11.20;99.90;;;;;;5054916;28;20271;-81
2022/11/01 09:35:58;;;;;;;12.15;6.18;;;11.30;99.90;;;;;;5053062;28;20199;-83
2022/11/01 09:38:24;;;;;;;19.77;7.22;;;11.30;99.90;;;;;;5035307;28;20184;-80
2022/11/01 09:41:12;;;;;;;13.23;6.63;;;11.30;99.90;;;;;;5034932;28;20407;-79
2022/11/01 09:43:42;;;;;;;12.63;5.32;;;11.30;99.90;;;;;;5052362;28;20267;-79
2022/11/01 09:46:14;;;;;;;10.90;6.72;;;11.20;99.90;;;;;;5052399;28;20621;-79
2022/11/01 09:48:42;;;;;;;15.48;6.40;;;11.30;99.90;;;;;;5051919;28;20569;-79
2022/11/01 09:51:20;;;;;;;14.27;6.50;;;11.30;99.90;;;;;;5052390;28;20266;-79
2022/11/01 09:53:48;;;;;;;13.38;6.50;;;11.40;99.90;;;;;;5052287;28;20223;-79
2022/11/01 09:56:37;;;;;;;11.88;7.38;;;11.40;99.90;;;;;;5052343;28;20180;-79
2022/11/01 09:59:30;;;;;;;10.55;6.45;;;11.50;99.90;;;;;;5051718;28;20198;-79
2022/11/01 10:02:25;;;;;;;8.90;5.95;;;11.60;99.90;;;;;;5035031;28;20701;-79
2022/11/01 10:04:59;;;;;;;9.15;5.03;;;11.60;99.90;;;;;;5053710;28;20184;-80
2022/11/01 10:07:28;;;;;;;11.50;6.22;;;11.50;99.90;;;;;;5055907;28;20213;-80
2022/11/01 10:09:57;;;;;;;17.98;7.53;;;11.60;99.90;;;;;;5056700;28;20179;-80
2022/11/01 10:12:43;;;;;;;16.08;8.35;;;11.70;99.90;;;;;;5038288;28;20652;-80
2022/11/01 10:15:31;;;;;;;11.23;6.43;;;11.70;99.90;;;;;;5038326;28;20205;-81
2022/11/01 10:18:20;;;;;;;9.05;5.07;;;11.80;99.90;;;;;;5056406;28;20180;-82
2022/11/01 10:20:47;;;;;;;15.85;6.13;;;11.80;99.90;;;;;;5041484;28;20222;-81
2022/11/01 10:23:28;;;;;;;9.43;5.75;;;11.90;99.90;;;;;;5059197;28;20176;-80
2022/11/01 10:25:53;;;;;;;13.10;6.03;;;11.80;99.90;;;;;;5059515;28;20708;-80
2022/11/01 10:28:43;;;;;;;10.07;4.68;;;11.80;99.90;;;;;;5037115;28;20208;-81
2022/11/01 10:31:19;;;;;;;9.77;5.57;;;11.70;99.90;;;;;;5052645;28;20191;-80
2022/11/01 10:34:07;;;;;;;12.07;5.65;;;11.70;99.90;;;;;;5053224;28;20168;-80
2022/11/01 10:36:36;;;;;;;12.35;6.22;;;11.80;99.90;;;;;;5053716;28;20254;-80
2022/11/01 10:39:19;;;;;;;9.23;5.30;;;11.90;99.90;;;;;;5053087;28;20222;-80
2022/11/01 10:41:51;;;;;;;11.25;6.25;;;11.90;99.90;;;;;;5052600;28;20191;-80
2022/11/01 10:44:27;;;;;;;8.88;5.53;;;11.90;99.90;;;;;;5053067;28;20633;-80
2022/11/01 10:46:55;;;;;;;9.20;5.63;;;11.90;99.90;;;;;;5052831;28;20160;-80
2022/11/01 10:49:48;;;;;;;9.55;5.40;;;11.90;99.90;;;;;;5052977;28;20176;-80
2022/11/01 10:52:19;;;;;;;9.88;5.90;;;11.90;99.90;;;;;;5053079;28;20168;-81
2022/11/01 10:54:45;;;;;;;14.73;6.35;;;12.00;99.90;;;;;;5035287;28;20262;-80
2022/11/01 10:57:26;;;;;;;10.45;5.28;;;12.20;99.90;;;;;;5052983;28;20623;-81
2022/11/01 10:59:55;;;;;;;10.07;5.88;;;12.30;99.90;;;;;;5052919;28;20282;-81
2022/11/01 11:02:30;;;;;;;11.57;6.68;;;12.40;99.90;;;;;;5053027;28;20176;-80
2022/11/01 11:04:56;;;;;;;10.30;5.55;;;12.40;99.90;;;;;;5052815;28;20679;-81
2022/11/01 11:07:24;;;;;;;10.70;5.63;;;12.40;99.90;;;;;;5052953;28;20204;-81
2022/11/01 11:09:50;;;;;;;10.57;5.05;;;12.50;99.90;;;;;;5035220;28;20190;-80
2022/11/01 11:12:22;;;;;;;8.93;5.93;;;12.50;99.90;;;;;;5052857;28;20601;-81
2022/11/01 11:14:56;;;;;;;8.30;5.70;;;12.50;99.90;;;;;;5052720;28;20179;-83
2022/11/01 11:17:33;;;;;;;7.78;4.55;;;12.50;99.90;;;;;;5053185;28;20214;-81
2022/11/01 11:20:05;;;;;;;11.95;4.75;;;12.70;99.90;;;;;;5055891;28;20200;-81
2022/11/01 11:22:36;;;;;;;9.05;4.65;;;12.80;99.90;;;;;;5055406;28;20195;-81
2022/11/01 11:25:02;;;;;;;10.38;5.22;;;12.70;99.90;;;;;;5055019;28;20218;-79
2022/11/01 11:27:32;;;;;;;11.60;5.13;;;12.80;99.90;;;;;;5055051;28;20168;-80
2022/11/01 11:30:04;;;;;;;8.40;5.35;;;12.90;99.90;;;;;;5054722;28;20625;-81
2022/11/01 11:32:32;;;;;;;9.48;4.60;;;12.90;99.90;;;;;;5054688;28;20782;-80
2022/11/01 11:35:15;;;;;;;8.13;4.38;;;12.90;99.90;;;;;;5054356;28;20191;-80
2022/11/01 11:37:56;;;;;;;9.32;4.45;;;13.00;99.90;;;;;;5054804;28;20157;-80
2022/11/01 11:40:42;;;;;;;8.00;4.88;;;13.10;99.90;;;;;;5054794;28;20202;-80
2022/11/01 11:43:32;;;;;;;6.95;4.13;;;13.20;99.90;;;;;;5054014;28;20179;-81
2022/11/01 11:46:19;;;;;;;10.68;4.68;;;13.40;99.90;;;;;;5054159;28;20160;-81
2022/11/01 11:49:03;;;;;;;6.47;4.43;;;13.90;99.90;;;;;;5054495;28;20613;-80
2022/11/01 11:51:32;;;;;;;8.63;5.03;;;14.30;99.90;;;;;;5036717;28;20580;-80
2022/11/01 11:54:15;;;;;;;6.78;4.57;;;14.60;99.90;;;;;;5053972;28;20234;-81
2022/11/01 11:56:41;;;;;;;9.57;4.63;;;14.60;99.90;;;;;;5054427;28;20247;-80
2022/11/01 11:59:27;;;;;;;8.82;5.28;;;14.30;99.90;;;;;;5036017;28;20274;-81
2022/11/01 12:01:56;;;;;;;6.85;4.10;;;14.50;99.90;;;;;;5054159;28;20655;-81
2022/11/01 12:04:23;;;;;;;7.55;4.30;;;14.50;99.90;;;;;;5053531;28;20225;-80
2022/11/01 12:06:49;;;;;;;5.88;4.45;;;14.50;99.90;;;;;;5053539;28;20636;-81
2022/11/01 12:09:46;;;;;;;7.03;4.45;;;14.50;99.90;;;;;;5053741;28;20183;-81
2022/11/01 12:12:28;;;;;;;11.35;5.45;;;14.50;99.90;;;;;;5052992;28;20516;-80
2022/11/01 12:14:55;;;;;;;8.68;4.47;;;14.60;99.90;;;;;;5054108;28;20175;-80
2022/11/01 12:17:31;;;;;;;8.98;5.50;;;14.50;99.90;;;;;;5053726;28;20633;-80
2022/11/01 12:20:20;;;;;;;7.68;3.92;;;14.50;99.90;;;;;;5053629;28;20202;-83
2022/11/01 12:23:06;;;;;;;11.32;4.45;;;14.50;99.90;;;;;;5053580;28;20176;-80
2022/11/01 12:25:34;;;;;;;8.15;5.00;;;14.50;99.90;;;;;;5053345;28;20218;-80
2022/11/01 12:28:05;;;;;;;11.15;5.40;;;14.50;99.90;;;;;;5053752;28;20183;-81
2022/11/01 12:30:33;;;;;;;8.52;4.60;;;14.50;99.90;;;;;;5052459;28;20210;-80
2022/11/01 12:33:24;;;;;;;6.45;3.67;;;14.60;99.90;;;;;;5035254;28;20737;-80
2022/11/01 12:35:53;;;;;;;7.40;3.78;;;14.70;99.90;;;;;;5037979;28;20233;-81
2022/11/01 12:38:40;;;;;;;6.43;3.47;;;14.80;99.90;;;;;;5053194;28;20171;-82
2022/11/01 12:41:15;;;;;;;5.05;3.28;;;15.10;99.90;;;;;;5053183;28;20195;-81
2022/11/01 12:44:26;;;;;;;10.88;4.65;;;15.30;99.90;;;;;;5052483;28;20167;-81
2022/11/01 12:47:01;;;;;;;9.38;4.45;;;15.30;99.90;;;;;;5033127;28;20225;-80
2022/11/01 12:49:36;;;;;;;6.05;3.83;;;15.40;99.90;;;;;;5034840;28;20171;-80
2022/11/01 12:52:22;;;;;;;7.65;5.15;;;15.50;99.90;;;;;;5051466;28;20195;-81
2022/11/01 12:55:07;;;;;;;9.10;5.00;;;15.60;99.90;;;;;;5021606;28;20204;-81
2022/11/01 12:57:33;;;;;;;5.72;3.78;;;15.90;99.90;;;;;;5053508;28;20605;-82
2022/11/01 13:00:00;;;;;;;9.32;4.30;;;16.40;99.90;;;;;;5053639;28;20211;-81
2022/11/01 13:02:52;;;;;;;5.45;3.70;;;16.90;99.90;;;;;;5054602;28;20181;-82
2022/11/01 13:05:23;;;;;;;8.50;3.55;;;17.50;99.90;;;;;;5053530;28;20724;-80
2022/11/01 13:07:56;;;;;;;5.63;3.88;;;18.10;99.90;;;;;;5052058;28;20172;-79
2022/11/01 13:10:28;;;;;;;5.57;3.45;;;18.20;99.90;;;;;;5052744;28;20189;-78
2022/11/01 13:13:12;;;;;;;8.63;3.72;;;18.20;99.90;;;;;;5052345;28;20605;-80